AUD weather

Augustus Downs Airport
Queensland, Australia

Public forecast

Using degrees Celsius for public forecast. Weather courtesy of forecast.io.

METAR (pilot weather report)

Closest report is Normanton Airport, 84.3 nm (156.2 km) NE. Retrieved 2019/04/19 18:00 UTC (13 minutes ago):

YNTN 191800Z AUTO 10003KT 9999 // NCD 24/15 Q1012

TAF (pilot weather forecast)

Closest forecast is Tennant Creek Airport, 330.1 nm (611.3 km) WSW. Retrieved 2019/04/19 14:33 UTC (4 hours ago):

TAF TAF YTNK 191306Z 1914/2002 12008KT CAVOK FM200000 07013KT CAVOK